createdAt,value
2019-05-02T00:00:27.407Z,44.73
2019-05-02T00:01:27.311Z,45.53
2019-05-02T00:02:28.788Z,44.63
2019-05-02T00:03:27.373Z,44.63
2019-05-02T00:04:27.362Z,45.23
2019-05-02T00:05:31.994Z,44.93
2019-05-02T00:06:28.342Z,45.43
2019-05-02T00:07:27.327Z,44.73
2019-05-02T00:08:29.338Z,45.63
2019-05-02T00:09:28.307Z,45.53
2019-05-02T00:10:27.306Z,44.83
2019-05-02T00:11:27.317Z,45.03
2019-05-02T00:12:27.186Z,44.93
2019-05-02T00:13:27.272Z,44.63
2019-05-02T00:14:27.262Z,44.93
2019-05-02T00:15:27.245Z,44.53
2019-05-02T00:16:27.229Z,44.43
2019-05-02T00:17:27.535Z,45.03
2019-05-02T00:18:27.214Z,44.85
2019-05-02T00:19:27.206Z,44.85
2019-05-02T00:20:27.226Z,44.63
2019-05-02T00:21:27.229Z,44.15
2019-05-02T00:22:27.160Z,44.04
2019-05-02T00:23:27.943Z,44.15
2019-05-02T00:24:27.136Z,44.55
2019-05-02T00:25:27.138Z,43.95
2019-05-02T00:26:27.027Z,43.82
2019-05-02T00:27:27.112Z,44.43
2019-05-02T00:28:26.997Z,43.74
2019-05-02T00:29:27.030Z,43.44
2019-05-02T00:30:30.078Z,44.45
2019-05-02T00:31:27.966Z,44.35
2019-05-02T00:32:26.985Z,43.74
2019-05-02T00:33:29.317Z,44.15
2019-05-02T00:34:28.058Z,43.72
2019-05-02T00:35:26.940Z,43.82
2019-05-02T00:36:27.008Z,43.72
2019-05-02T00:37:27.001Z,43.42
2019-05-02T00:38:26.979Z,43.44
2019-05-02T00:39:26.974Z,43.92
2019-05-02T00:40:27.825Z,43.42
2019-05-02T00:41:26.965Z,43.44
2019-05-02T00:42:26.934Z,43.95
2019-05-02T00:43:28.984Z,43.74
2019-05-02T00:44:27.909Z,43.44
2019-05-02T00:45:26.910Z,44.15
2019-05-02T00:46:30.303Z,43.62
2019-05-02T00:47:27.870Z,43.74
2019-05-02T00:48:26.872Z,43.74
2019-05-02T00:49:30.851Z,44.45
2019-05-02T00:50:26.840Z,43.82
2019-05-02T00:51:28.071Z,43.62
2019-05-02T00:52:26.863Z,43.84
2019-05-02T00:53:26.808Z,43.74
2019-05-02T00:54:26.810Z,43.95
2019-05-02T00:55:28.876Z,43.44
2019-05-02T00:56:27.771Z,43.95
2019-05-02T00:57:26.787Z,44.04
2019-05-02T00:58:27.223Z,42.84
2019-05-02T00:59:26.749Z,43.84
2019-05-02T01:00:26.653Z,43.44
2019-05-02T01:01:29.732Z,43.54
2019-05-02T01:02:26.725Z,44.04
2019-05-02T01:03:26.714Z,43.74
2019-05-02T01:04:27.687Z,43.74
2019-05-02T01:05:26.687Z,44.45
2019-05-02T01:06:26.661Z,43.34
2019-05-02T01:07:26.907Z,43.54
2019-05-02T01:08:26.652Z,43.04
2019-05-02T01:09:26.639Z,43.34
2019-05-02T01:10:26.666Z,43.64
2019-05-02T01:11:28.297Z,43.74
2019-05-02T01:12:27.506Z,42.94
2019-05-02T01:13:26.491Z,43.54
2019-05-02T01:14:27.065Z,43.04
2019-05-02T01:15:26.572Z,43.64
2019-05-02T01:16:26.587Z,43.44
2019-05-02T01:17:30.970Z,43.04
2019-05-02T01:18:27.542Z,43.14
2019-05-02T01:19:26.529Z,42.74
2019-05-02T01:20:27.690Z,43.04
2019-05-02T01:21:26.512Z,42.84
2019-05-02T01:22:26.422Z,43.14
2019-05-02T01:23:27.649Z,43.64
2019-05-02T01:24:26.377Z,43.44
2019-05-02T01:25:26.448Z,43.44
2019-05-02T01:26:29.253Z,43.44
2019-05-02T01:27:26.429Z,43.04
2019-05-02T01:28:26.401Z,43.44
2019-05-02T01:29:29.901Z,43.34
2019-05-02T01:30:27.309Z,43.14
2019-05-02T01:31:26.302Z,43.44
2019-05-02T01:32:30.037Z,42.84
2019-05-02T01:33:26.276Z,42.94
2019-05-02T01:34:26.306Z,43.34
2019-05-02T01:35:26.926Z,43.24
2019-05-02T01:36:26.248Z,43.14
2019-05-02T01:37:26.312Z,42.94
2019-05-02T01:38:31.578Z,43.04
2019-05-02T01:39:27.350Z,43.14
2019-05-02T01:40:27.278Z,43.04
2019-05-02T01:41:29.255Z,42.84
2019-05-02T01:42:38.722Z,43.34
2019-05-02T01:43:27.261Z,43.04
2019-05-02T01:44:26.254Z,42.94
2019-05-02T01:45:26.263Z,42.84
2019-05-02T01:46:26.232Z,42.74
2019-05-02T01:47:29.178Z,41.93
2019-05-02T01:48:27.111Z,42.35
2019-05-02T01:49:26.189Z,41.43
2019-05-02T01:50:28.945Z,42.03
2019-05-02T01:51:27.221Z,41.93
2019-05-02T01:52:26.163Z,43.14
2019-05-02T01:53:29.229Z,42.64
2019-05-02T01:54:27.049Z,42.25
2019-05-02T01:55:26.122Z,42.46
2019-05-02T01:56:28.583Z,41.23
2019-05-02T01:57:27.049Z,42.66
2019-05-02T01:58:26.088Z,42.86
2019-05-02T01:59:29.119Z,41.83
2019-05-02T02:00:27.076Z,41.63
2019-05-02T02:01:26.087Z,41.25
2019-05-02T02:02:28.173Z,41.65
2019-05-02T02:03:27.065Z,41.93
2019-05-02T02:04:26.030Z,42.25
2019-05-02T02:05:27.583Z,41.85
2019-05-02T02:06:27.012Z,42.13
2019-05-02T02:07:25.980Z,41.63
2019-05-02T02:08:27.369Z,42.13
2019-05-02T02:09:27.005Z,41.13
2019-05-02T02:10:25.860Z,41.33
2019-05-02T02:11:28.551Z,41.13
2019-05-02T02:12:26.935Z,41.73
2019-05-02T02:13:25.942Z,42.13
2019-05-02T02:14:25.902Z,41.23
2019-05-02T02:15:29.066Z,41.03
2019-05-02T02:16:25.890Z,42.13
2019-05-02T02:17:25.885Z,42.13
2019-05-02T02:18:27.489Z,42.03
2019-05-02T02:19:25.857Z,41.73
2019-05-02T02:20:25.852Z,41.25
2019-05-02T02:21:27.629Z,41.75
2019-05-02T02:22:25.839Z,41.33
2019-05-02T02:23:25.722Z,41.65
2019-05-02T02:24:26.421Z,42.03
2019-05-02T02:25:25.790Z,42.05
2019-05-02T02:26:25.772Z,41.83
2019-05-02T02:27:25.910Z,41.75
2019-05-02T02:28:25.757Z,41.83
2019-05-02T02:29:25.743Z,41.13
2019-05-02T02:30:26.671Z,41.73
2019-05-02T02:31:25.708Z,41.33
2019-05-02T02:32:26.770Z,41.73
2019-05-02T02:33:25.741Z,41.53
2019-05-02T02:34:29.270Z,41.55
2019-05-02T02:35:25.689Z,40.83
2019-05-02T02:36:31.377Z,41.13
2019-05-02T02:37:26.669Z,41.83
2019-05-02T02:38:26.746Z,40.95
2019-05-02T02:39:26.660Z,41.23
2019-05-02T02:40:32.576Z,41.33
2019-05-02T02:41:26.610Z,42.05
2019-05-02T02:42:31.816Z,41.73
2019-05-02T02:43:34.045Z,41.13
2019-05-02T02:44:26.576Z,41.93
2019-05-02T02:45:25.596Z,40.84
2019-05-02T02:46:30.720Z,41.83
2019-05-02T02:47:26.558Z,41.03
2019-05-02T02:48:25.532Z,41.43
2019-05-02T02:49:25.527Z,41.53
2019-05-02T02:50:25.424Z,41.33
2019-05-02T02:51:26.391Z,40.83
2019-05-02T02:52:25.495Z,41.23
2019-05-02T02:53:25.765Z,41.53
2019-05-02T02:54:25.373Z,40.92
2019-05-02T02:55:25.459Z,41.23
2019-05-02T02:56:25.349Z,41.15
2019-05-02T02:57:28.169Z,41.35
2019-05-02T02:58:25.416Z,41.33
2019-05-02T02:59:28.016Z,41.05
2019-05-02T03:00:25.402Z,41.05
2019-05-02T03:01:28.861Z,41.43
2019-05-02T03:02:25.381Z,41.63
2019-05-02T03:03:27.922Z,41.35
2019-05-02T03:04:25.351Z,41.93
2019-05-02T03:05:27.622Z,41.95
2019-05-02T03:06:25.250Z,40.64
2019-05-02T03:07:28.593Z,40.75
2019-05-02T03:08:25.310Z,40.95
2019-05-02T03:09:26.629Z,40.84
2019-05-02T03:10:25.322Z,41.85
2019-05-02T03:11:25.678Z,41.05
2019-05-02T03:12:25.271Z,41.65
2019-05-02T03:13:25.259Z,41.25
2019-05-02T03:14:25.234Z,41.45
2019-05-02T03:15:27.918Z,41.25
2019-05-02T03:16:25.230Z,40.95
2019-05-02T03:17:28.088Z,41.15
2019-05-02T03:18:27.036Z,41.15
2019-05-02T03:19:25.188Z,41.85
2019-05-02T03:20:25.176Z,41.35
2019-05-02T03:21:25.205Z,40.75
2019-05-02T03:22:25.177Z,40.95
2019-05-02T03:23:25.140Z,41.35
2019-05-02T03:24:25.037Z,41.05
2019-05-02T03:25:48.277Z,41.15
2019-05-02T03:26:26.131Z,41.55
2019-05-02T03:27:29.934Z,41.05
2019-05-02T03:28:26.100Z,40.84
2019-05-02T03:29:24.995Z,40.95
2019-05-02T03:30:33.187Z,40.84
2019-05-02T03:31:30.105Z,41.05
2019-05-02T03:32:33.084Z,40.95
2019-05-02T03:33:26.032Z,41.25
2019-05-02T03:34:45.338Z,41.15
2019-05-02T03:35:40.152Z,41.15
2019-05-02T03:36:30.090Z,41.05
2019-05-02T03:37:26.023Z,40.75
2019-05-02T03:38:32.643Z,40.95
2019-05-02T03:39:25.893Z,40.75
2019-05-02T03:40:24.951Z,40.55
2019-05-02T03:41:24.941Z,40.95
2019-05-02T03:42:24.936Z,41.15
2019-05-02T03:43:25.523Z,40.84
2019-05-02T03:44:26.310Z,40.64
2019-05-02T03:45:24.903Z,40.75
2019-05-02T03:46:24.884Z,40.95
2019-05-02T03:47:24.876Z,40.84
2019-05-02T03:48:25.946Z,41.45
2019-05-02T03:49:24.894Z,41.25
2019-05-02T03:50:32.446Z,40.75
2019-05-02T03:51:25.842Z,40.84
2019-05-02T03:52:24.725Z,40.75
2019-05-02T03:53:25.689Z,40.55
2019-05-02T03:54:24.706Z,41.15
2019-05-02T03:55:30.805Z,40.95
2019-05-02T03:56:25.787Z,40.55
2019-05-02T03:57:32.969Z,40.24
2019-05-02T03:58:25.756Z,40.75
2019-05-02T03:59:37.518Z,40.55
2019-05-02T04:00:25.782Z,40.14
2019-05-02T04:01:24.723Z,40.24
2019-05-02T04:02:24.726Z,40.84
2019-05-02T04:03:24.700Z,40.44
2019-05-02T04:04:24.696Z,40.55
2019-05-02T04:05:24.682Z,40.44
2019-05-02T04:06:24.704Z,40.44
2019-05-02T04:07:24.658Z,40.55
2019-05-02T04:08:24.649Z,40.34
2019-05-02T04:09:24.635Z,39.34
2019-05-02T04:10:24.627Z,40.44
2019-05-02T04:11:24.512Z,40.44
2019-05-02T04:12:24.629Z,39.64
2019-05-02T04:13:24.597Z,40.55
2019-05-02T04:14:37.308Z,40.04
2019-05-02T04:15:28.783Z,39.64
2019-05-02T04:16:25.553Z,40.55
2019-05-02T04:17:28.950Z,40.44
2019-05-02T04:18:27.679Z,39.64
2019-05-02T04:19:28.629Z,39.84
2019-05-02T04:20:25.517Z,39.84
2019-05-02T04:21:26.298Z,39.43
2019-05-02T04:22:24.512Z,39.84
2019-05-02T04:23:27.663Z,39.54
2019-05-02T04:24:25.490Z,39.64
2019-05-02T04:25:27.908Z,39.43
2019-05-02T04:26:25.348Z,39.64
2019-05-02T04:27:27.845Z,39.74
2019-05-02T04:28:25.416Z,39.84
2019-05-02T04:29:30.963Z,40.55
2019-05-02T04:30:25.440Z,41.05
2019-05-02T04:31:30.981Z,40.44
2019-05-02T04:32:25.379Z,39.34
2019-05-02T04:33:29.123Z,39.74
2019-05-02T04:34:25.358Z,39.94
2019-05-02T04:35:28.880Z,39.84
2019-05-02T04:36:25.368Z,39.43
2019-05-02T04:37:24.320Z,39.74
2019-05-02T04:38:39.263Z,39.74
2019-05-02T04:39:28.443Z,39.84
2019-05-02T04:40:24.292Z,39.43
2019-05-02T04:41:28.702Z,39.84
2019-05-02T04:42:25.296Z,39.74
2019-05-02T04:43:24.270Z,40.14
2019-05-02T04:44:32.435Z,39.74
2019-05-02T04:45:35.871Z,39.74
2019-05-02T04:46:27.997Z,39.74
2019-05-02T04:47:25.212Z,40.64
2019-05-02T04:48:24.235Z,40.64
2019-05-02T04:49:29.801Z,39.03
2019-05-02T04:50:26.392Z,39.14
2019-05-02T04:51:27.462Z,39.94
2019-05-02T04:52:25.161Z,39.74
2019-05-02T04:53:25.756Z,39.54
2019-05-02T04:54:31.333Z,39.14
2019-05-02T04:55:30.179Z,39.64
2019-05-02T04:56:25.001Z,39.54
2019-05-02T04:57:29.278Z,39.34
2019-05-02T04:58:31.441Z,39.43
2019-05-02T04:59:25.074Z,39.43
2019-05-02T05:00:24.111Z,39.43
2019-05-02T05:01:24.050Z,39.34
2019-05-02T05:02:30.826Z,39.43
2019-05-02T05:03:25.031Z,39.14
2019-05-02T05:04:24.030Z,39.54
2019-05-02T05:05:25.704Z,39.42
2019-05-02T05:06:24.032Z,39.23
2019-05-02T05:07:23.991Z,39.32
2019-05-02T05:08:26.220Z,39.32
2019-05-02T05:09:27.734Z,39.34
2019-05-02T05:10:23.962Z,39.03
2019-05-02T05:11:25.007Z,39.14
2019-05-02T05:12:23.954Z,38.71
2019-05-02T05:13:26.160Z,39.14
2019-05-02T05:14:23.907Z,39.23
2019-05-02T05:15:37.087Z,39.01
2019-05-02T05:16:24.886Z,38.81
2019-05-02T05:17:25.075Z,39.12
2019-05-02T05:18:27.294Z,38.92
2019-05-02T05:19:30.890Z,38.93
2019-05-02T05:20:27.935Z,39.12
2019-05-02T05:21:24.997Z,38.81
2019-05-02T05:22:23.813Z,38.51
2019-05-02T05:23:23.812Z,38.92
2019-05-02T05:24:25.005Z,38.71
2019-05-02T05:25:23.798Z,39.12
2019-05-02T05:26:23.790Z,39.01
2019-05-02T05:27:23.763Z,39.22
2019-05-02T05:28:23.758Z,39.32
2019-05-02T05:29:23.739Z,38.71
2019-05-02T05:30:23.775Z,39.01
2019-05-02T05:31:25.555Z,38.92
2019-05-02T05:32:23.700Z,38.92
2019-05-02T05:33:23.689Z,39.52
2019-05-02T05:34:30.714Z,38.71
2019-05-02T05:35:24.736Z,38.71
2019-05-02T05:36:29.222Z,38.71
2019-05-02T05:37:24.658Z,39.01
2019-05-02T05:38:28.613Z,38.62
2019-05-02T05:39:24.629Z,38.92
2019-05-02T05:40:28.226Z,38.51
2019-05-02T05:41:24.635Z,38.92
2019-05-02T05:42:30.092Z,38.92
2019-05-02T05:43:24.577Z,38.81
2019-05-02T05:44:30.589Z,38.62
2019-05-02T05:45:24.577Z,38.62
2019-05-02T05:46:23.550Z,38.71
2019-05-02T05:47:23.589Z,38.81
2019-05-02T05:48:23.530Z,38.51
2019-05-02T05:49:23.516Z,38.42
2019-05-02T05:50:23.514Z,38.62
2019-05-02T05:51:23.508Z,38.71
2019-05-02T05:52:23.486Z,38.71
2019-05-02T05:53:24.579Z,38.42
2019-05-02T05:54:23.374Z,38.81
2019-05-02T05:55:24.409Z,38.71
2019-05-02T05:56:23.440Z,39.22
2019-05-02T05:57:23.342Z,38.62
2019-05-02T05:58:23.337Z,38.62
2019-05-02T05:59:28.247Z,38.81
2019-05-02T06:00:24.296Z,38.81
2019-05-02T06:01:26.245Z,39.12
2019-05-02T06:02:24.315Z,39.12
2019-05-02T06:03:23.249Z,38.62
2019-05-02T06:04:24.933Z,38.62
2019-05-02T06:05:24.289Z,38.70
2019-05-02T06:06:24.571Z,38.51
2019-05-02T06:07:23.211Z,39.01
2019-05-02T06:08:23.210Z,38.42
2019-05-02T06:09:26.315Z,38.90
2019-05-02T06:10:24.280Z,38.90
2019-05-02T06:11:23.319Z,38.71
2019-05-02T06:12:26.164Z,38.70
2019-05-02T06:13:24.140Z,38.81
2019-05-02T06:14:25.014Z,38.81
2019-05-02T06:15:23.147Z,38.42
2019-05-02T06:16:23.124Z,38.51
2019-05-02T06:17:28.312Z,38.60
2019-05-02T06:18:24.184Z,38.20
2019-05-02T06:19:23.089Z,38.90
2019-05-02T06:20:25.780Z,38.60
2019-05-02T06:21:24.055Z,38.49
2019-05-02T06:22:24.675Z,38.09
2019-05-02T06:23:23.077Z,38.09
2019-05-02T06:24:23.029Z,38.40
2019-05-02T06:25:32.806Z,38.20
2019-05-02T06:26:24.000Z,38.49
2019-05-02T06:27:26.001Z,37.79
2019-05-02T06:28:24.040Z,38.60
2019-05-02T06:29:23.066Z,37.89
2019-05-02T06:30:27.042Z,37.89
2019-05-02T06:31:23.958Z,37.89
2019-05-02T06:32:22.993Z,38.79
2019-05-02T06:33:25.906Z,38.70
2019-05-02T06:34:23.978Z,38.70
2019-05-02T06:35:22.905Z,39.00
2019-05-02T06:36:22.884Z,39.40
2019-05-02T06:37:22.894Z,39.70
2019-05-02T06:38:22.959Z,39.60
2019-05-02T06:39:27.029Z,39.60
2019-05-02T06:40:23.902Z,39.80
2019-05-02T06:41:22.835Z,39.20
2019-05-02T06:42:22.837Z,39.50
2019-05-02T06:43:22.817Z,39.10
2019-05-02T06:44:23.721Z,38.98
2019-05-02T06:45:22.797Z,39.20
2019-05-02T06:46:27.842Z,40.08
2019-05-02T06:47:23.800Z,39.88
2019-05-02T06:48:22.761Z,39.78
2019-05-02T06:49:24.898Z,39.88
2019-05-02T06:50:24.746Z,40.19
2019-05-02T06:51:22.827Z,39.28
2019-05-02T06:52:27.322Z,39.08
2019-05-02T06:53:23.802Z,39.38
2019-05-02T06:54:23.109Z,39.28
2019-05-02T06:55:22.684Z,38.98
2019-05-02T06:56:22.672Z,39.18
2019-05-02T06:57:24.129Z,39.18
2019-05-02T06:58:22.692Z,39.48
2019-05-02T06:59:22.640Z,39.18
2019-05-02T07:00:35.350Z,39.28
2019-05-02T07:01:23.626Z,39.16
2019-05-02T07:02:22.605Z,39.18
2019-05-02T07:03:22.585Z,39.08
2019-05-02T07:04:24.900Z,39.36
2019-05-02T07:05:27.236Z,39.26
2019-05-02T07:06:22.909Z,39.16
2019-05-02T07:07:25.235Z,39.26
2019-05-02T07:08:23.636Z,38.86
2019-05-02T07:09:22.574Z,38.86
2019-05-02T07:10:25.377Z,38.76
2019-05-02T07:11:22.619Z,39.06
2019-05-02T07:12:22.592Z,39.06
2019-05-02T07:13:22.574Z,39.16
2019-05-02T07:14:23.414Z,38.96
2019-05-02T07:15:22.588Z,38.46
2019-05-02T07:16:36.871Z,38.96
2019-05-02T07:17:26.487Z,38.86
2019-05-02T07:18:23.525Z,38.96
2019-05-02T07:19:27.198Z,39.06
2019-05-02T07:20:23.497Z,38.76
2019-05-02T07:21:23.640Z,38.46
2019-05-02T07:22:22.507Z,38.36
2019-05-02T07:23:22.478Z,38.76
2019-05-02T07:24:25.151Z,38.46
2019-05-02T07:25:23.449Z,38.56
2019-05-02T07:26:23.358Z,38.76
2019-05-02T07:27:22.441Z,38.76
2019-05-02T07:28:24.155Z,38.26
2019-05-02T07:29:23.132Z,38.64
2019-05-02T07:30:22.299Z,38.46
2019-05-02T07:31:22.293Z,38.26
2019-05-02T07:32:24.899Z,38.76
2019-05-02T07:33:22.361Z,38.66
2019-05-02T07:34:22.373Z,39.16
2019-05-02T07:35:24.409Z,39.16
2019-05-02T07:36:22.334Z,39.04
2019-05-02T07:37:22.207Z,39.04
2019-05-02T07:38:25.560Z,39.16
2019-05-02T07:39:23.234Z,39.04
2019-05-02T07:40:22.204Z,40.15
2019-05-02T07:41:24.140Z,39.75
2019-05-02T07:42:23.149Z,39.54
2019-05-02T07:43:22.420Z,36.83
2019-05-02T07:44:22.134Z,36.83
2019-05-02T07:45:22.273Z,34.84
2019-05-02T07:46:22.287Z,35.16
2019-05-02T07:47:22.239Z,36.29
2019-05-02T07:48:22.098Z,36.90
2019-05-02T07:49:26.651Z,36.80
2019-05-02T07:50:23.084Z,35.90
2019-05-02T07:51:22.671Z,36.22
2019-05-02T07:52:22.054Z,37.02
2019-05-02T07:53:22.042Z,37.54
2019-05-02T07:54:24.684Z,37.12
2019-05-02T07:55:22.135Z,36.02
2019-05-02T07:56:22.141Z,36.82
2019-05-02T07:57:25.233Z,37.12
2019-05-02T07:58:22.985Z,37.02
2019-05-02T07:59:23.292Z,37.12
2019-05-02T08:00:21.960Z,36.72
2019-05-02T08:01:21.954Z,36.92
2019-05-02T08:02:25.007Z,36.00
2019-05-02T08:03:21.932Z,35.61
2019-05-02T08:04:21.912Z,36.32
2019-05-02T08:05:23.821Z,37.32
2019-05-02T08:06:34.618Z,35.21
2019-05-02T08:07:25.883Z,36.32
2019-05-02T08:08:25.068Z,36.02
2019-05-02T08:09:22.884Z,36.42
2019-05-02T08:10:23.871Z,36.60
2019-05-02T08:11:21.852Z,36.30
2019-05-02T08:12:21.930Z,35.51
2019-05-02T08:13:21.953Z,36.10
2019-05-02T08:14:21.902Z,36.50
2019-05-02T08:15:24.497Z,36.50
2019-05-02T08:16:22.384Z,37.30
2019-05-02T08:17:22.769Z,37.01
2019-05-02T08:18:25.165Z,36.90
2019-05-02T08:19:23.646Z,36.90
2019-05-02T08:20:21.875Z,37.19
2019-05-02T08:21:21.830Z,37.39
2019-05-02T08:22:21.818Z,37.49
2019-05-02T08:23:25.932Z,37.49
2019-05-02T08:24:22.694Z,37.47
2019-05-02T08:25:21.804Z,37.37
2019-05-02T08:26:23.461Z,37.07
2019-05-02T08:27:23.215Z,37.05
2019-05-02T08:28:21.742Z,37.17
2019-05-02T08:29:23.521Z,37.55
2019-05-02T08:30:22.719Z,37.35
2019-05-02T08:31:21.603Z,37.26
2019-05-02T08:32:21.605Z,37.15
2019-05-02T08:33:21.622Z,37.05
2019-05-02T08:34:21.602Z,37.65
2019-05-02T08:35:21.678Z,37.65
2019-05-02T08:36:21.573Z,37.65
2019-05-02T08:37:21.550Z,37.55
2019-05-02T08:38:21.541Z,37.24
2019-05-02T08:39:25.984Z,37.44
2019-05-02T08:40:22.511Z,37.44
2019-05-02T08:41:21.553Z,37.04
2019-05-02T08:42:21.589Z,37.24
2019-05-02T08:43:21.587Z,37.24
2019-05-02T08:44:21.578Z,36.93
2019-05-02T08:45:21.598Z,36.93
2019-05-02T08:46:21.448Z,36.93
2019-05-02T08:47:23.800Z,36.93
2019-05-02T08:48:22.842Z,37.02
2019-05-02T08:49:21.519Z,36.32
2019-05-02T08:50:21.400Z,36.02
2019-05-02T08:51:21.416Z,35.82
2019-05-02T08:52:21.501Z,35.91
2019-05-02T08:53:22.256Z,35.61
2019-05-02T08:54:21.471Z,35.21
2019-05-02T08:55:21.451Z,34.61
2019-05-02T08:56:21.709Z,35.01
2019-05-02T08:57:23.830Z,35.21
2019-05-02T08:58:21.420Z,34.61
2019-05-02T08:59:24.520Z,35.21
2019-05-02T09:00:21.396Z,35.61
2019-05-02T09:01:34.006Z,35.51
2019-05-02T09:02:25.902Z,35.41
2019-05-02T09:03:21.266Z,36.02
2019-05-02T09:04:24.278Z,36.21
2019-05-02T09:05:22.238Z,36.61
2019-05-02T09:06:22.470Z,36.92
2019-05-02T09:07:21.350Z,36.60
2019-05-02T09:08:21.335Z,36.61
2019-05-02T09:09:22.797Z,35.89
2019-05-02T09:10:22.171Z,35.69
2019-05-02T09:11:21.263Z,34.69
2019-05-02T09:12:22.930Z,34.89
2019-05-02T09:13:26.443Z,35.60
2019-05-02T09:14:22.271Z,35.39
2019-05-02T09:15:22.359Z,34.59
2019-05-02T09:16:28.397Z,34.19
2019-05-02T09:17:33.079Z,34.89
2019-05-02T09:18:25.327Z,34.19
2019-05-02T09:19:26.292Z,34.59
2019-05-02T09:20:23.593Z,34.59
2019-05-02T09:21:21.945Z,35.30
2019-05-02T09:22:22.146Z,34.89
2019-05-02T09:23:22.785Z,34.59
2019-05-02T09:24:23.783Z,34.89
2019-05-02T09:25:21.950Z,35.60
2019-05-02T09:26:33.199Z,35.19
2019-05-02T09:27:22.518Z,34.39
2019-05-02T09:28:22.635Z,34.29
2019-05-02T09:29:22.208Z,34.99
2019-05-02T09:30:22.885Z,34.29
2019-05-02T09:31:22.635Z,35.68
2019-05-02T09:32:22.707Z,34.67
2019-05-02T09:33:22.649Z,35.39
2019-05-02T09:34:22.772Z,34.28
2019-05-02T09:35:23.053Z,34.99
2019-05-02T09:36:22.660Z,35.08
2019-05-02T09:37:22.651Z,34.58
2019-05-02T09:38:22.230Z,34.89
2019-05-02T09:39:22.679Z,34.89
2019-05-02T09:40:22.184Z,34.80
2019-05-02T09:41:22.120Z,33.79
2019-05-02T09:42:21.724Z,34.80
2019-05-02T09:43:22.738Z,34.58
2019-05-02T09:44:22.351Z,35.60
2019-05-02T09:45:22.763Z,34.49
2019-05-02T09:46:21.765Z,33.19
2019-05-02T09:47:22.199Z,33.49
2019-05-02T09:48:24.868Z,33.59
2019-05-02T09:49:22.174Z,34.09
2019-05-02T09:50:26.556Z,34.59
2019-05-02T09:51:21.838Z,33.99
2019-05-02T09:52:22.214Z,33.99
2019-05-02T09:53:25.452Z,34.69
2019-05-02T09:54:23.084Z,34.59
2019-05-02T09:55:22.553Z,36.20
2019-05-02T09:56:22.006Z,35.39
2019-05-02T09:57:22.495Z,35.69
2019-05-02T09:58:21.917Z,35.60
2019-05-02T09:59:27.811Z,35.60
2019-05-02T10:00:26.772Z,35.69
2019-05-02T10:01:22.363Z,35.78
2019-05-02T10:02:22.225Z,35.68
2019-05-02T10:03:22.472Z,35.89
2019-05-02T10:04:22.406Z,35.60
2019-05-02T10:05:20.688Z,35.50
2019-05-02T10:06:22.824Z,34.58
2019-05-02T10:07:22.256Z,35.78
2019-05-02T10:08:22.810Z,35.18
2019-05-02T10:09:24.234Z,34.58
2019-05-02T10:10:21.944Z,34.67
2019-05-02T10:11:22.629Z,34.48
2019-05-02T10:12:22.890Z,34.28
2019-05-02T10:13:22.694Z,34.08
2019-05-02T10:14:22.413Z,33.37
2019-05-02T10:15:22.191Z,33.37
2019-05-02T10:16:23.502Z,33.37
2019-05-02T10:17:23.142Z,33.58
2019-05-02T10:18:28.664Z,34.38
2019-05-02T10:19:25.722Z,34.38
2019-05-02T10:20:25.370Z,34.28
2019-05-02T10:21:22.802Z,33.36
2019-05-02T10:22:20.388Z,35.08
2019-05-02T10:23:21.429Z,36.98
2019-05-02T10:24:22.208Z,39.77
2019-05-02T10:25:20.471Z,34.86
2019-05-02T10:26:24.465Z,37.16
2019-05-02T10:27:21.665Z,39.17
2019-05-02T10:28:20.314Z,39.17
2019-05-02T10:29:27.678Z,37.07
2019-05-02T10:30:21.727Z,36.66
2019-05-02T10:31:21.866Z,35.66
2019-05-02T10:32:20.274Z,34.86
2019-05-02T10:33:22.328Z,35.05
2019-05-02T10:34:22.370Z,34.84
2019-05-02T10:35:20.384Z,33.34
2019-05-02T10:36:23.683Z,33.54
2019-05-02T10:37:21.706Z,33.34
2019-05-02T10:38:20.222Z,33.14
2019-05-02T10:39:20.212Z,32.94
2019-05-02T10:40:20.202Z,32.54
2019-05-02T10:41:22.287Z,32.54
2019-05-02T10:42:21.967Z,33.04
2019-05-02T10:43:22.100Z,32.14
2019-05-02T10:44:22.411Z,32.44
2019-05-02T10:45:22.532Z,33.24
2019-05-02T10:46:20.134Z,32.12
2019-05-02T10:47:22.102Z,32.14
2019-05-02T10:48:25.786Z,32.12
2019-05-02T10:49:22.626Z,32.24
2019-05-02T10:50:22.179Z,32.24
2019-05-02T10:51:23.870Z,32.54
2019-05-02T10:52:29.309Z,32.44
2019-05-02T10:53:21.903Z,32.14
2019-05-02T10:54:21.186Z,32.43
2019-05-02T10:55:22.244Z,33.12
2019-05-02T10:56:22.038Z,32.82
2019-05-02T10:57:21.871Z,31.82
2019-05-02T10:58:26.183Z,32.32
2019-05-02T10:59:22.077Z,32.53
2019-05-02T11:00:22.014Z,32.73
2019-05-02T11:01:21.855Z,32.03
2019-05-02T11:02:22.126Z,31.82
2019-05-02T11:03:20.038Z,32.23
2019-05-02T11:04:22.101Z,32.23
2019-05-02T11:05:24.714Z,32.12
2019-05-02T11:06:22.268Z,31.43
2019-05-02T11:07:22.775Z,31.52
2019-05-02T11:08:22.463Z,31.43
2019-05-02T11:09:22.509Z,32.03
2019-05-02T11:10:21.769Z,31.62
2019-05-02T11:11:21.821Z,32.03
2019-05-02T11:12:24.240Z,31.93
2019-05-02T11:13:21.791Z,32.03
2019-05-02T11:14:19.822Z,31.52
2019-05-02T11:15:21.914Z,31.62
2019-05-02T11:16:21.637Z,32.23
2019-05-02T11:17:19.899Z,31.32
2019-05-02T11:18:22.039Z,31.32
2019-05-02T11:19:21.387Z,31.93
2019-05-02T11:20:19.747Z,31.31
2019-05-02T11:21:19.853Z,32.32
2019-05-02T11:22:19.868Z,31.62
2019-05-02T11:23:19.759Z,31.71
2019-05-02T11:24:19.708Z,31.02
2019-05-02T11:25:19.811Z,31.12
2019-05-02T11:26:21.525Z,31.41
2019-05-02T11:27:22.139Z,31.01
2019-05-02T11:28:21.882Z,31.02
2019-05-02T11:29:19.660Z,31.12
2019-05-02T11:30:22.393Z,31.23
2019-05-02T11:31:21.849Z,31.02
2019-05-02T11:32:19.720Z,31.12
2019-05-02T11:33:19.693Z,31.11
2019-05-02T11:34:19.697Z,31.61
2019-05-02T11:35:19.689Z,31.32
2019-05-02T11:36:19.581Z,31.02
2019-05-02T11:37:19.566Z,30.73
2019-05-02T11:38:19.983Z,30.91
2019-05-02T11:39:27.744Z,29.93
2019-05-02T11:40:22.676Z,30.01
2019-05-02T11:41:19.527Z,30.02
2019-05-02T11:42:25.665Z,30.43
2019-05-02T11:43:22.343Z,30.31
2019-05-02T11:44:19.481Z,30.43
2019-05-02T11:45:19.477Z,30.71
2019-05-02T11:46:19.491Z,30.73
2019-05-02T11:47:24.874Z,30.31
2019-05-02T11:48:22.460Z,31.01
2019-05-02T11:49:19.532Z,31.31
2019-05-02T11:50:19.509Z,31.61
2019-05-02T11:51:19.507Z,31.81
2019-05-02T11:52:19.423Z,31.01
2019-05-02T11:53:26.985Z,30.91
2019-05-02T11:54:22.550Z,30.71
2019-05-02T11:55:24.596Z,30.71
2019-05-02T11:56:22.263Z,31.31
2019-05-02T11:57:22.807Z,31.11
2019-05-02T11:58:20.331Z,31.21
2019-05-02T11:59:22.642Z,30.91
2019-05-02T12:00:21.829Z,31.21
2019-05-02T12:01:34.293Z,30.71
2019-05-02T12:02:21.958Z,31.11
2019-05-02T12:03:19.281Z,31.11
2019-05-02T12:04:19.254Z,30.81
2019-05-02T12:05:19.259Z,30.91
2019-05-02T12:06:19.853Z,30.91
2019-05-02T12:07:19.233Z,30.62
2019-05-02T12:08:19.216Z,31.21
2019-05-02T12:09:19.317Z,30.91
2019-05-02T12:10:19.200Z,30.61
2019-05-02T12:11:19.194Z,30.81
2019-05-02T12:12:19.191Z,30.61
2019-05-02T12:13:19.167Z,30.81
2019-05-02T12:14:19.164Z,30.91
2019-05-02T12:15:19.137Z,30.73
2019-05-02T12:16:19.127Z,31.12
2019-05-02T12:17:19.211Z,30.71
2019-05-02T12:18:21.172Z,30.62
2019-05-02T12:19:19.102Z,30.73
2019-05-02T12:20:19.169Z,30.61
2019-05-02T12:21:19.183Z,30.62
2019-05-02T12:22:19.159Z,30.22
2019-05-02T12:23:19.062Z,30.62
2019-05-02T12:24:19.089Z,30.52
2019-05-02T12:25:19.123Z,30.62
2019-05-02T12:26:19.115Z,30.43
2019-05-02T12:27:19.017Z,30.62
2019-05-02T12:28:19.011Z,30.62
2019-05-02T12:29:18.994Z,30.93
2019-05-02T12:30:19.005Z,31.31
2019-05-02T12:31:18.971Z,31.02
2019-05-02T12:32:18.941Z,31.02
2019-05-02T12:33:18.958Z,30.81
2019-05-02T12:34:18.933Z,30.73
2019-05-02T12:35:18.899Z,30.61
2019-05-02T12:36:18.931Z,30.73
2019-05-02T12:37:18.902Z,30.73
2019-05-02T12:38:18.902Z,30.91
2019-05-02T12:39:18.871Z,31.12
2019-05-02T12:40:18.855Z,31.01
2019-05-02T12:41:21.975Z,30.81
2019-05-02T12:42:19.191Z,30.61
2019-05-02T12:43:18.833Z,30.91
2019-05-02T12:44:18.818Z,31.21
2019-05-02T12:45:18.812Z,32.21
2019-05-02T12:46:18.787Z,31.31
2019-05-02T12:47:18.797Z,31.71
2019-05-02T12:48:18.819Z,31.41
2019-05-02T12:49:27.043Z,31.81
2019-05-02T12:50:19.755Z,31.51
2019-05-02T12:51:18.731Z,31.51
2019-05-02T12:52:18.742Z,32.11